Time;durP1;ratioP1;P1;durP2;ratioP2;P2;SDS_P1;SDS_P2;PMS_P1;PMS_P2;Temp;Humidity;BMP_temperature;BMP_pressure;BME280_temperature;BME280_humidity;BME280_pressure;Samples;Min_cycle;Max_cycle;Signal;HPM_P1;HPM_P2
2021/03/16 00:01:11;;;;;;;3.20;0.90;;;-2.70;46.70;;;;;;4358547;32;20066;-35
2021/03/16 00:03:39;;;;;;;4.57;1.13;;;-2.60;46.60;;;;;;4370868;32;20178;-34
2021/03/16 00:06:06;;;;;;;5.00;1.73;;;-2.60;46.40;;;;;;4358520;32;20255;-35
2021/03/16 00:08:32;;;;;;;1.47;0.67;;;-2.60;46.30;;;;;;4316541;33;20082;-35
2021/03/16 00:10:59;;;;;;;1.37;0.70;;;-2.50;46.20;;;;;;4329146;33;20062;-36
2021/03/16 00:13:25;;;;;;;2.17;0.80;;;-2.40;46.00;;;;;;4273020;33;20063;-35
2021/03/16 00:15:52;;;;;;;2.90;0.90;;;-2.30;45.80;;;;;;4285456;33;20071;-35
2021/03/16 00:18:19;;;;;;;2.53;0.70;;;-2.30;45.60;;;;;;4297474;33;20071;-35
2021/03/16 00:20:46;;;;;;;2.60;1.17;;;-2.30;45.50;;;;;;4287361;33;20582;-35
2021/03/16 00:23:13;;;;;;;0.50;0.43;;;-2.30;45.30;;;;;;4256515;33;20207;-34
2021/03/16 00:25:40;;;;;;;2.33;1.03;;;-2.20;45.30;;;;;;4268126;33;20568;-35
2021/03/16 00:28:06;;;;;;;1.40;0.67;;;-2.20;45.10;;;;;;4253678;33;20080;-36
2021/03/16 00:30:33;;;;;;;4.30;1.13;;;-2.10;45.00;;;;;;4253916;33;20073;-34
2021/03/16 00:32:59;;;;;;;2.17;0.97;;;-2.10;44.80;;;;;;4254202;33;20505;-35
2021/03/16 00:35:26;;;;;;;3.00;0.60;;;-2.10;44.70;;;;;;4242834;33;20526;-35
2021/03/16 00:37:53;;;;;;;2.73;0.70;;;-2.10;44.60;;;;;;4242363;33;20590;-35
2021/03/16 00:40:19;;;;;;;1.50;0.60;;;-2.00;44.50;;;;;;4242346;33;20170;-35
2021/03/16 00:42:46;;;;;;;2.13;0.97;;;-2.00;44.40;;;;;;4254033;33;20110;-35
2021/03/16 00:45:13;;;;;;;3.07;0.97;;;-2.00;44.20;;;;;;4285046;33;20071;-34
2021/03/16 00:47:40;;;;;;;2.17;0.70;;;-2.00;44.10;;;;;;4326415;33;20154;-35
2021/03/16 00:50:08;;;;;;;1.73;0.70;;;-2.00;44.10;;;;;;4326158;33;20063;-35
2021/03/16 00:52:35;;;;;;;1.27;0.50;;;-2.00;44.10;;;;;;4326121;33;20071;-35
2021/03/16 00:55:02;;;;;;;2.83;0.80;;;-2.00;44.00;;;;;;4326126;33;20520;-34
2021/03/16 00:57:28;;;;;;;1.47;0.60;;;-2.00;43.80;;;;;;4313971;33;20187;-34
2021/03/16 00:59:55;;;;;;;0.27;0.20;;;-2.00;43.90;;;;;;4353815;32;20558;-35
2021/03/16 01:02:21;;;;;;;1.67;0.60;;;-2.10;43.90;;;;;;4379787;32;20101;-34
2021/03/16 01:04:48;;;;;;;1.50;0.53;;;-2.10;44.00;;;;;;4392491;32;20506;-35
2021/03/16 01:07:15;;;;;;;5.93;0.63;;;-2.10;43.90;;;;;;4392537;32;20060;-34
2021/03/16 01:09:41;;;;;;;1.00;0.27;;;-2.10;43.90;;;;;;4396622;32;20542;-35
2021/03/16 01:12:08;;;;;;;1.63;0.70;;;-2.10;44.00;;;;;;4360656;32;20505;-34
2021/03/16 01:14:35;;;;;;;5.70;1.03;;;-2.10;44.00;;;;;;4360779;32;20066;-34
2021/03/16 01:17:01;;;;;;;1.90;0.80;;;-2.10;44.00;;;;;;4363516;32;20066;-35
2021/03/16 01:19:28;;;;;;;3.07;0.67;;;-2.10;43.90;;;;;;4358320;32;20078;-36
2021/03/16 01:21:54;;;;;;;2.27;0.70;;;-2.00;43.80;;;;;;4346485;32;20082;-34
2021/03/16 01:24:21;;;;;;;3.27;0.70;;;-2.00;43.60;;;;;;4358498;32;20135;-34
2021/03/16 01:26:47;;;;;;;2.30;1.23;;;-2.00;43.60;;;;;;4346144;32;20651;-35
2021/03/16 01:29:14;;;;;;;3.00;0.60;;;-2.10;43.60;;;;;;4358686;32;20255;-35
2021/03/16 01:31:40;;;;;;;2.70;0.97;;;-2.10;43.60;;;;;;4346010;32;20139;-34
2021/03/16 01:34:07;;;;;;;2.33;0.43;;;-2.10;43.60;;;;;;4345852;32;20074;-34
2021/03/16 01:36:34;;;;;;;1.00;0.63;;;-2.10;43.60;;;;;;4313613;33;20063;-35
2021/03/16 01:39:00;;;;;;;1.40;0.50;;;-2.20;43.50;;;;;;4314114;33;20071;-34
2021/03/16 01:41:27;;;;;;;3.00;0.93;;;-2.20;43.50;;;;;;4313993;33;20148;-35
2021/03/16 01:43:53;;;;;;;2.33;1.10;;;-2.20;43.50;;;;;;4301536;33;20082;-37
2021/03/16 01:46:20;;;;;;;2.20;0.53;;;-2.20;43.50;;;;;;4313940;33;20063;-35
2021/03/16 01:48:47;;;;;;;2.07;0.80;;;-2.20;44.20;;;;;;4275246;33;20060;-35
2021/03/16 01:51:13;;;;;;;6.33;0.97;;;-2.30;43.50;;;;;;4255727;33;20155;-36
2021/03/16 01:53:41;;;;;;;1.90;0.90;;;-2.30;43.50;;;;;;4255759;33;20077;-35
2021/03/16 01:56:07;;;;;;;2.93;0.80;;;-2.30;43.50;;;;;;4249411;33;20072;-34
2021/03/16 01:58:34;;;;;;;2.00;1.03;;;-2.40;43.40;;;;;;4272814;33;20469;-35
2021/03/16 02:01:00;;;;;;;2.53;0.63;;;-2.40;43.50;;;;;;4261093;33;20071;-36
2021/03/16 02:03:27;;;;;;;4.40;1.17;;;-2.40;43.50;;;;;;4284914;33;20090;-34
2021/03/16 02:05:54;;;;;;;1.30;0.60;;;-2.40;43.40;;;;;;4284210;33;20108;-35
2021/03/16 02:08:35;;;;;;;2.07;0.80;;;-2.40;43.40;;;;;;4272533;33;20106;-34
2021/03/16 02:11:54;;;;;;;2.70;0.50;;;-2.40;43.40;;;;;;4284233;33;20064;-35
2021/03/16 02:14:59;;;;;;;4.13;1.03;;;-2.40;43.40;;;;;;4233069;33;20291;-34
2021/03/16 02:17:48;;;;;;;12.90;1.03;;;-2.40;43.40;;;;;;4241634;33;20200;-34
2021/03/16 02:20:48;;;;;;;4.57;1.23;;;-2.50;43.40;;;;;;4241337;33;20148;-34
2021/03/16 02:23:25;;;;;;;6.13;1.30;;;-2.50;44.10;;;;;;4267161;33;20084;-35
2021/03/16 02:26:19;;;;;;;1.30;0.80;;;-2.50;43.50;;;;;;4267196;33;20492;-34
2021/03/16 02:29:21;;;;;;;4.70;0.80;;;-2.60;43.60;;;;;;4286793;33;20251;-34
2021/03/16 02:31:57;;;;;;;8.13;0.97;;;-2.50;43.60;;;;;;4298482;33;20110;-34
2021/03/16 02:34:23;;;;;;;2.87;0.90;;;-2.60;43.60;;;;;;4286465;33;20087;-34
2021/03/16 02:36:50;;;;;;;2.40;1.13;;;-2.60;43.60;;;;;;4298234;33;20572;-35
2021/03/16 02:39:17;;;;;;;7.27;1.10;;;-2.60;43.70;;;;;;4286647;33;20162;-34
2021/03/16 02:41:48;;;;;;;5.07;0.73;;;-2.60;43.70;;;;;;4286478;33;20062;-35
2021/03/16 02:44:15;;;;;;;2.30;0.70;;;-2.60;43.70;;;;;;4286521;33;20158;-36
2021/03/16 02:46:44;;;;;;;7.37;0.90;;;-2.60;43.60;;;;;;4269266;33;20580;-35
2021/03/16 02:49:12;;;;;;;3.97;0.80;;;-2.60;43.60;;;;;;4254533;33;20065;-36
2021/03/16 02:51:39;;;;;;;1.90;0.87;;;-2.60;43.60;;;;;;4242725;33;20080;-34
2021/03/16 02:54:05;;;;;;;1.87;0.87;;;-2.60;43.60;;;;;;4258161;33;20082;-34
2021/03/16 02:56:33;;;;;;;5.87;0.60;;;-2.50;43.60;;;;;;4271897;33;20517;-34
2021/03/16 02:59:00;;;;;;;2.60;0.40;;;-2.50;43.50;;;;;;4272054;33;20060;-35
2021/03/16 03:01:27;;;;;;;2.93;0.87;;;-2.50;43.40;;;;;;4271734;33;20079;-35
2021/03/16 03:03:53;;;;;;;4.93;1.07;;;-2.50;43.30;;;;;;4242937;33;20092;-35
2021/03/16 03:06:20;;;;;;;3.43;0.90;;;-2.40;43.50;;;;;;4219634;33;20160;-35
2021/03/16 03:08:47;;;;;;;4.23;1.10;;;-2.50;43.30;;;;;;4235256;33;20071;-34
2021/03/16 03:11:14;;;;;;;3.30;0.53;;;-2.40;43.30;;;;;;4257362;33;20506;-37
2021/03/16 03:13:41;;;;;;;2.77;1.07;;;-2.50;43.20;;;;;;4257790;33;20080;-34
2021/03/16 03:16:08;;;;;;;10.47;2.00;;;-2.50;43.20;;;;;;4228871;33;20073;-34
2021/03/16 03:18:35;;;;;;;7.83;1.17;;;-2.50;43.20;;;;;;4277086;33;20069;-38
2021/03/16 03:21:28;;;;;;;5.00;0.90;;;-2.50;43.30;;;;;;4283211;33;20064;-35
2021/03/16 03:24:02;;;;;;;10.07;1.17;;;-2.50;43.30;;;;;;4279128;33;20088;-35
2021/03/16 03:26:55;;;;;;;1.20;0.40;;;-2.40;43.30;;;;;;4260168;33;20110;-34
2021/03/16 03:29:21;;;;;;;2.77;0.47;;;-2.40;43.20;;;;;;4288178;33;20079;-35
2021/03/16 03:31:48;;;;;;;3.63;0.97;;;-2.40;43.10;;;;;;4288361;33;20806;-35
2021/03/16 03:34:15;;;;;;;3.63;0.80;;;-2.40;43.20;;;;;;4293786;33;20114;-35
2021/03/16 03:36:42;;;;;;;6.77;1.00;;;-2.30;43.30;;;;;;4317456;33;20071;-35
2021/03/16 03:39:09;;;;;;;3.60;0.47;;;-2.30;43.30;;;;;;4329167;33;20559;-36
2021/03/16 03:41:36;;;;;;;1.90;0.40;;;-2.20;43.20;;;;;;4299816;33;20067;-37
2021/03/16 03:44:04;;;;;;;3.80;0.63;;;-2.10;43.30;;;;;;4300069;33;20071;-35
2021/03/16 03:46:32;;;;;;;1.67;0.33;;;-1.90;43.20;;;;;;4312540;33;20105;-36
2021/03/16 03:49:01;;;;;;;2.87;0.50;;;-1.80;43.00;;;;;;4300567;33;20079;-34
2021/03/16 03:51:28;;;;;;;9.93;0.87;;;-1.70;42.90;;;;;;4277012;33;20074;-35
2021/03/16 03:53:54;;;;;;;6.30;0.70;;;-1.50;42.80;;;;;;4282310;33;20082;-36
2021/03/16 03:56:21;;;;;;;5.10;0.60;;;-1.40;42.60;;;;;;4317238;33;20094;-35
2021/03/16 03:58:47;;;;;;;2.93;0.87;;;-1.30;42.60;;;;;;4317505;33;20097;-36
2021/03/16 04:01:14;;;;;;;6.20;1.03;;;-1.20;42.30;;;;;;4311940;33;20055;-36
2021/03/16 04:03:40;;;;;;;12.03;1.90;;;-1.10;42.10;;;;;;4312004;33;20149;-36
2021/03/16 04:06:07;;;;;;;4.00;0.53;;;-1.00;41.80;;;;;;4314844;33;20633;-37
2021/03/16 04:08:34;;;;;;;5.43;0.83;;;-0.90;41.60;;;;;;4315116;33;20130;-36
2021/03/16 04:11:01;;;;;;;6.87;0.60;;;-0.80;41.70;;;;;;4302636;33;20132;-36
2021/03/16 04:13:28;;;;;;;9.43;1.10;;;-0.70;41.70;;;;;;4326800;33;20178;-36
2021/03/16 04:15:55;;;;;;;13.00;1.90;;;-0.60;41.50;;;;;;4299606;33;20092;-36
2021/03/16 04:18:22;;;;;;;2.13;0.40;;;-0.60;41.00;;;;;;4300244;33;20072;-36
2021/03/16 04:20:49;;;;;;;3.23;0.80;;;-0.50;40.90;;;;;;4299942;33;20074;-37
2021/03/16 04:23:15;;;;;;;12.30;0.80;;;-0.40;40.60;;;;;;4312153;33;20499;-37
2021/03/16 04:25:42;;;;;;;18.33;1.40;;;-0.20;40.30;;;;;;4299829;33;20095;-37
2021/03/16 04:28:08;;;;;;;2.57;1.20;;;-0.10;40.10;;;;;;4299963;33;20101;-37
2021/03/16 04:30:35;;;;;;;9.07;0.90;;;-0.10;39.80;;;;;;4300365;33;20067;-36
2021/03/16 04:33:02;;;;;;;5.23;1.33;;;0.00;39.70;;;;;;4299882;33;20133;-36
2021/03/16 04:35:29;;;;;;;8.67;0.87;;;0.10;39.40;;;;;;4329368;33;20566;-38
2021/03/16 04:37:55;;;;;;;7.50;1.03;;;0.20;39.20;;;;;;4329528;33;20577;-37
2021/03/16 04:40:23;;;;;;;4.90;0.70;;;0.30;39.20;;;;;;4329957;33;20086;-37
2021/03/16 04:42:50;;;;;;;11.33;1.10;;;0.30;38.80;;;;;;4330049;33;20647;-36
2021/03/16 04:45:17;;;;;;;8.33;0.80;;;0.40;38.50;;;;;;4344271;33;20102;-36
2021/03/16 04:47:43;;;;;;;2.07;0.53;;;0.40;38.30;;;;;;4344395;33;20059;-36
2021/03/16 04:50:10;;;;;;;16.00;1.30;;;0.40;38.20;;;;;;4344581;33;20562;-37
2021/03/16 04:52:37;;;;;;;18.50;0.97;;;0.50;38.20;;;;;;4326420;32;20477;-37
2021/03/16 04:55:04;;;;;;;1.67;0.57;;;0.60;38.30;;;;;;4376655;32;20050;-35
2021/03/16 04:57:30;;;;;;;3.07;0.77;;;0.60;37.90;;;;;;4375420;32;20525;-37
2021/03/16 04:59:57;;;;;;;18.33;1.00;;;0.70;37.60;;;;;;4374628;32;20069;-36
2021/03/16 05:02:23;;;;;;;17.13;1.30;;;0.80;37.40;;;;;;4374769;32;20147;-36
2021/03/16 05:04:50;;;;;;;8.87;0.83;;;0.90;37.40;;;;;;4374943;32;20453;-37
2021/03/16 05:07:17;;;;;;;13.83;0.93;;;1.00;37.20;;;;;;4376573;32;20086;-37
2021/03/16 05:09:43;;;;;;;28.50;1.73;;;1.20;37.10;;;;;;4362562;32;20149;-37
2021/03/16 05:12:10;;;;;;;15.10;1.73;;;1.30;37.10;;;;;;4376952;32;20547;-35
2021/03/16 05:14:37;;;;;;;15.80;1.67;;;1.50;37.00;;;;;;4375162;32;20098;-38
2021/03/16 05:17:03;;;;;;;8.10;0.90;;;1.60;36.60;;;;;;4376563;32;20054;-36
2021/03/16 05:19:30;;;;;;;4.63;1.07;;;1.70;36.40;;;;;;4377166;32;20070;-36
2021/03/16 05:21:56;;;;;;;9.90;1.00;;;1.80;36.50;;;;;;4346416;32;20599;-35
2021/03/16 05:24:23;;;;;;;21.10;1.60;;;1.80;35.80;;;;;;4346639;32;20153;-36
2021/03/16 05:26:49;;;;;;;14.03;1.73;;;2.00;35.80;;;;;;4359200;32;20202;-37
2021/03/16 05:29:16;;;;;;;11.97;1.73;;;2.10;35.30;;;;;;4359165;32;20078;-36
2021/03/16 05:31:42;;;;;;;15.33;1.40;;;2.10;34.30;;;;;;4375023;32;20133;-37
2021/03/16 05:34:09;;;;;;;7.97;1.07;;;2.10;34.70;;;;;;4377003;32;20086;-37
2021/03/16 05:36:35;;;;;;;17.43;1.07;;;2.20;34.70;;;;;;4376587;32;20070;-40
2021/03/16 05:39:02;;;;;;;6.77;0.67;;;2.30;34.60;;;;;;4389531;32;20640;-39
2021/03/16 05:41:29;;;;;;;20.07;2.27;;;2.50;34.30;;;;;;4389458;32;20081;-37
2021/03/16 05:43:56;;;;;;;6.27;1.53;;;2.70;34.60;;;;;;4377274;32;20138;-37
2021/03/16 05:46:23;;;;;;;4.13;1.53;;;3.00;34.60;;;;;;4377256;32;20062;-36
2021/03/16 05:48:51;;;;;;;7.63;0.97;;;3.30;34.30;;;;;;4378472;32;20299;-38
2021/03/16 05:51:18;;;;;;;7.97;0.90;;;3.60;33.70;;;;;;4378757;32;20198;-37
2021/03/16 05:53:48;;;;;;;12.00;1.97;;;4.00;33.10;;;;;;4390717;32;20073;-40
2021/03/16 05:56:15;;;;;;;15.53;1.70;;;4.40;32.60;;;;;;4395526;32;20567;-37
2021/03/16 05:58:43;;;;;;;40.33;4.17;;;4.60;32.40;;;;;;4381246;32;20057;-39
2021/03/16 06:01:12;;;;;;;8.10;1.27;;;4.90;32.00;;;;;;4396073;32;20061;-38
2021/03/16 06:03:39;;;;;;;12.80;1.17;;;5.10;31.50;;;;;;4392378;32;20078;-38
2021/03/16 06:06:08;;;;;;;13.00;0.97;;;5.40;31.10;;;;;;4395744;32;20066;-37
2021/03/16 06:08:34;;;;;;;14.07;1.40;;;5.60;30.50;;;;;;4391091;32;20090;-37
2021/03/16 06:11:01;;;;;;;9.20;0.90;;;5.80;30.30;;;;;;4375609;32;20057;-37
2021/03/16 06:13:28;;;;;;;9.90;1.23;;;6.10;30.00;;;;;;4378659;32;20054;-38
2021/03/16 06:15:54;;;;;;;3.83;1.07;;;6.30;30.00;;;;;;4384000;32;20061;-37
2021/03/16 06:18:28;;;;;;;44.77;3.67;;;6.50;29.50;;;;;;4382798;32;20050;-38
2021/03/16 06:21:02;;;;;;;15.03;1.20;;;6.60;29.40;;;;;;4377450;32;20198;-38
2021/03/16 06:23:37;;;;;;;11.30;1.15;;;6.90;29.10;;;;;;4377032;32;20234;-37
2021/03/16 06:26:13;;;;;;;25.40;2.67;;;7.00;28.90;;;;;;4377232;32;20063;-37
2021/03/16 06:28:40;;;;;;;16.60;1.97;;;7.10;28.80;;;;;;4376495;32;20142;-37
2021/03/16 06:31:06;;;;;;;21.60;2.17;;;7.20;28.50;;;;;;4380427;32;20147;-38
2021/03/16 06:33:33;;;;;;;22.73;2.13;;;7.20;28.60;;;;;;4386779;32;20639;-38
2021/03/16 06:36:10;;;;;;;18.33;2.10;;;7.20;28.70;;;;;;4374132;32;20152;-38
2021/03/16 06:38:38;;;;;;;29.00;3.83;;;7.20;28.40;;;;;;4374287;32;20656;-38
2021/03/16 06:41:15;;;;;;;26.63;1.90;;;7.10;28.20;;;;;;4374287;32;20073;-37
2021/03/16 06:43:53;;;;;;;20.33;1.70;;;7.00;28.50;;;;;;4386940;32;20143;-37
2021/03/16 06:46:39;;;;;;;24.30;2.30;;;6.90;28.50;;;;;;4386737;32;20592;-38
2021/03/16 06:49:18;;;;;;;24.40;1.85;;;6.70;28.50;;;;;;4374632;32;20547;-37
2021/03/16 06:51:45;;;;;;;36.67;2.60;;;6.60;28.60;;;;;;4387470;32;20069;-38
2021/03/16 06:54:24;;;;;;;16.03;1.23;;;6.50;28.70;;;;;;4387705;32;20077;-38
2021/03/16 06:57:00;;;;;;;13.80;1.63;;;6.40;28.40;;;;;;4374856;32;20066;-38
2021/03/16 06:59:31;;;;;;;10.50;0.80;;;6.20;28.00;;;;;;4373994;32;20251;-37
2021/03/16 07:01:58;;;;;;;13.97;0.97;;;6.00;27.90;;;;;;4387153;32;20069;-41
2021/03/16 07:04:26;;;;;;;10.87;1.30;;;5.70;28.10;;;;;;4386613;32;20058;-38
2021/03/16 07:06:53;;;;;;;16.67;1.87;;;5.40;28.20;;;;;;4361805;32;20575;-38
2021/03/16 07:09:20;;;;;;;12.73;1.60;;;5.30;28.30;;;;;;4361919;32;20455;-39
2021/03/16 07:11:50;;;;;;;9.97;1.33;;;5.10;28.70;;;;;;4389027;32;20066;-39
2021/03/16 07:14:18;;;;;;;54.00;3.77;;;5.00;29.00;;;;;;4374571;32;20053;-38
2021/03/16 07:16:49;;;;;;;15.33;2.07;;;5.00;29.00;;;;;;4374539;32;20764;-37
2021/03/16 07:19:17;;;;;;;21.37;2.63;;;5.00;29.00;;;;;;4375151;32;20080;-38
2021/03/16 07:21:54;;;;;;;16.83;2.23;;;5.00;29.20;;;;;;4359875;32;20081;-36
2021/03/16 07:24:25;;;;;;;8.00;0.90;;;5.10;29.40;;;;;;4359530;32;20109;-38
2021/03/16 07:26:53;;;;;;;16.17;1.67;;;5.10;29.10;;;;;;4371478;32;20157;-38
2021/03/16 07:29:20;;;;;;;17.53;1.80;;;5.20;28.70;;;;;;4347311;32;20097;-36
2021/03/16 07:31:46;;;;;;;12.83;2.17;;;5.10;28.10;;;;;;4356674;32;20086;-38
2021/03/16 07:34:19;;;;;;;21.57;3.80;;;5.00;29.00;;;;;;4332250;32;20071;-36
2021/03/16 07:36:49;;;;;;;19.30;2.03;;;4.90;28.80;;;;;;4356415;32;20560;-38
2021/03/16 07:39:20;;;;;;;19.43;2.00;;;4.60;28.90;;;;;;4356482;32;20094;-37
2021/03/16 07:41:48;;;;;;;7.73;0.83;;;4.30;29.20;;;;;;4332119;32;20074;-37
2021/03/16 07:44:16;;;;;;;13.40;1.73;;;4.00;29.70;;;;;;4331899;32;20493;-36
2021/03/16 07:46:59;;;;;;;18.00;1.97;;;3.70;30.10;;;;;;4356258;32;20073;-38
2021/03/16 07:49:34;;;;;;;13.20;1.13;;;3.40;30.80;;;;;;4332709;32;20086;-37
2021/03/16 07:52:01;;;;;;;8.43;1.33;;;3.30;31.20;;;;;;4335046;32;20082;-36
2021/03/16 07:54:36;;;;;;;11.87;2.00;;;3.30;31.40;;;;;;4371948;32;20447;-38
2021/03/16 07:57:04;;;;;;;8.15;1.70;;;3.50;31.60;;;;;;4371817;32;20628;-38
2021/03/16 07:59:35;;;;;;;21.33;2.07;;;3.60;31.20;;;;;;4371638;32;20149;-36
2021/03/16 08:02:05;;;;;;;18.13;2.60;;;3.60;31.50;;;;;;4373093;32;20061;-37
2021/03/16 08:04:39;;;;;;;18.87;3.17;;;3.70;31.20;;;;;;4383799;32;20493;-36
2021/03/16 08:07:12;;;;;;;13.05;1.70;;;3.80;31.30;;;;;;4373361;32;20091;-37
2021/03/16 08:09:45;;;;;;;10.40;2.03;;;3.90;31.00;;;;;;4374548;32;20070;-38
2021/03/16 08:12:26;;;;;;;6.33;1.43;;;4.00;30.50;;;;;;4356684;32;20144;-37
2021/03/16 08:14:53;;;;;;;12.93;1.30;;;4.00;30.80;;;;;;4358374;32;20603;-38
2021/03/16 08:17:30;;;;;;;16.83;2.23;;;4.00;31.00;;;;;;4358452;32;20063;-37
2021/03/16 08:19:58;;;;;;;6.53;1.33;;;4.10;30.70;;;;;;4358356;32;20070;-37
2021/03/16 08:22:27;;;;;;;30.80;1.97;;;4.20;30.50;;;;;;4358881;32;20507;-36
2021/03/16 08:25:04;;;;;;;18.30;3.20;;;4.30;30.60;;;;;;4358370;32;20110;-37
2021/03/16 08:27:33;;;;;;;20.17;2.03;;;4.50;30.30;;;;;;4357412;32;20128;-38
2021/03/16 08:29:59;;;;;;;8.63;1.43;;;4.60;30.00;;;;;;4357147;32;20074;-38
2021/03/16 08:32:26;;;;;;;6.23;1.10;;;4.80;30.00;;;;;;4381693;32;20096;-38
2021/03/16 08:34:54;;;;;;;22.37;1.47;;;4.90;29.30;;;;;;4374785;32;20077;-40
2021/03/16 08:37:41;;;;;;;4.30;1.07;;;5.00;29.40;;;;;;4389442;32;20101;-37
2021/03/16 08:40:09;;;;;;;11.80;1.53;;;5.00;29.30;;;;;;4388686;32;20055;-37
2021/03/16 08:42:35;;;;;;;10.00;1.70;;;5.10;29.30;;;;;;4343798;32;20141;-39
2021/03/16 08:45:02;;;;;;;5.00;1.40;;;5.10;29.40;;;;;;4356373;32;20061;-37
2021/03/16 08:47:29;;;;;;;6.40;1.13;;;5.10;29.10;;;;;;4341212;33;20047;-36
2021/03/16 08:49:56;;;;;;;14.57;1.97;;;5.00;29.20;;;;;;4341441;33;20151;-37
2021/03/16 08:52:27;;;;;;;12.83;2.27;;;5.00;29.40;;;;;;4329262;33;20063;-36
2021/03/16 08:54:58;;;;;;;19.20;1.97;;;5.10;29.80;;;;;;4329279;33;20062;-36
2021/03/16 08:57:26;;;;;;;10.53;1.57;;;5.20;29.70;;;;;;4329180;33;20070;-37
2021/03/16 08:59:55;;;;;;;3.50;0.80;;;5.30;29.90;;;;;;4329877;33;20063;-36
2021/03/16 09:02:34;;;;;;;13.60;1.90;;;5.40;29.80;;;;;;4329772;33;20159;-37
2021/03/16 09:05:01;;;;;;;8.73;1.27;;;5.60;29.60;;;;;;4341255;33;20083;-37
2021/03/16 09:07:33;;;;;;;5.23;0.90;;;5.70;29.70;;;;;;4328784;33;20148;-39
2021/03/16 09:10:18;;;;;;;9.47;0.93;;;5.80;29.70;;;;;;4341206;33;20171;-38
2021/03/16 09:12:47;;;;;;;5.20;1.00;;;5.90;29.40;;;;;;4333591;32;20589;-38
2021/03/16 09:15:17;;;;;;;7.33;2.03;;;6.00;29.20;;;;;;4371363;32;20488;-39
2021/03/16 09:17:46;;;;;;;3.67;1.27;;;6.20;29.30;;;;;;4376815;32;20101;-37
2021/03/16 09:20:45;;;;;;;2.07;0.70;;;6.30;28.70;;;;;;4402947;32;20053;-39
2021/03/16 09:23:13;;;;;;;2.40;0.70;;;6.40;28.80;;;;;;4380661;32;20058;-38
2021/03/16 09:25:45;;;;;;;1.90;0.60;;;6.60;29.00;;;;;;4391269;32;20057;-39
2021/03/16 09:28:14;;;;;;;5.57;1.33;;;6.60;28.70;;;;;;4372577;32;20086;-39
2021/03/16 09:30:44;;;;;;;1.77;0.80;;;6.80;29.10;;;;;;4360612;32;20274;-38
2021/03/16 09:33:13;;;;;;;4.47;0.97;;;6.90;28.60;;;;;;4372920;32;20094;-39
2021/03/16 09:35:39;;;;;;;7.30;0.97;;;6.90;28.70;;;;;;4348060;32;20070;-38
2021/03/16 09:38:07;;;;;;;2.40;1.27;;;7.00;29.10;;;;;;4360739;32;20602;-38
2021/03/16 09:40:43;;;;;;;4.67;1.00;;;7.00;28.80;;;;;;4372902;32;20077;-40
2021/03/16 09:43:22;;;;;;;1.07;0.60;;;7.20;28.80;;;;;;4373003;32;20075;-39
2021/03/16 09:46:04;;;;;;;5.97;0.80;;;7.40;28.20;;;;;;4360666;32;20121;-40
2021/03/16 09:48:30;;;;;;;2.50;0.90;;;7.50;28.20;;;;;;4360936;32;20157;-39
2021/03/16 09:51:20;;;;;;;3.17;1.13;;;7.60;28.10;;;;;;4372598;32;20163;-39
2021/03/16 09:53:55;;;;;;;1.90;1.33;;;7.60;28.10;;;;;;4359489;32;20166;-40
2021/03/16 09:56:33;;;;;;;3.47;0.90;;;7.70;28.40;;;;;;4360762;32;20140;-39
2021/03/16 09:59:04;;;;;;;2.00;1.00;;;7.60;27.70;;;;;;4348516;32;20073;-40
2021/03/16 10:01:31;;;;;;;3.33;1.20;;;7.60;27.90;;;;;;4343517;32;20073;-39
2021/03/16 10:04:01;;;;;;;5.60;1.20;;;7.50;28.00;;;;;;4331004;33;20079;-40
2021/03/16 10:06:46;;;;;;;10.10;1.10;;;7.40;28.40;;;;;;4340073;32;20069;-41
2021/03/16 10:09:20;;;;;;;5.00;1.07;;;7.40;28.70;;;;;;4338346;33;20127;-40
2021/03/16 10:11:50;;;;;;;2.90;0.90;;;7.40;28.40;;;;;;4330427;33;20154;-39
2021/03/16 10:14:31;;;;;;;4.60;0.97;;;7.50;28.70;;;;;;4343033;33;20451;-40
2021/03/16 10:16:57;;;;;;;2.77;0.80;;;7.60;28.60;;;;;;4330719;33;20573;-40
2021/03/16 10:19:24;;;;;;;1.87;0.90;;;7.70;28.70;;;;;;4330323;33;20070;-38
2021/03/16 10:21:51;;;;;;;4.03;0.90;;;7.90;28.50;;;;;;4330393;33;20574;-39
2021/03/16 10:24:27;;;;;;;3.73;0.80;;;8.10;28.70;;;;;;4300462;33;20574;-40
2021/03/16 10:26:55;;;;;;;2.47;0.87;;;8.30;28.30;;;;;;4301016;33;20078;-40
2021/03/16 10:29:22;;;;;;;2.33;1.03;;;8.50;28.30;;;;;;4301059;33;20139;-41
2021/03/16 10:31:49;;;;;;;3.00;0.83;;;8.80;28.10;;;;;;4308051;33;20083;-41
2021/03/16 10:34:15;;;;;;;5.33;0.83;;;8.90;27.70;;;;;;4326940;33;20068;-40
2021/03/16 10:36:42;;;;;;;3.57;1.00;;;9.10;27.60;;;;;;4335192;32;20165;-40
2021/03/16 10:39:09;;;;;;;14.70;1.20;;;9.20;27.30;;;;;;4359809;32;20079;-40
2021/03/16 10:41:36;;;;;;;3.13;1.07;;;9.30;27.50;;;;;;4359185;32;20078;-41
2021/03/16 10:44:02;;;;;;;3.70;0.97;;;9.30;27.20;;;;;;4359114;32;20489;-41
2021/03/16 10:46:29;;;;;;;3.23;1.00;;;9.30;27.60;;;;;;4372118;32;20484;-40
2021/03/16 10:48:55;;;;;;;8.00;1.10;;;9.30;26.80;;;;;;4359457;32;20050;-39
2021/03/16 10:51:22;;;;;;;1.30;0.60;;;9.30;26.80;;;;;;4371890;32;20076;-40
2021/03/16 10:53:49;;;;;;;2.60;0.90;;;9.20;27.40;;;;;;4359201;32;20054;-39
2021/03/16 10:56:15;;;;;;;2.70;1.13;;;9.10;27.10;;;;;;4346642;32;20070;-39
2021/03/16 10:58:41;;;;;;;3.97;0.90;;;9.10;27.00;;;;;;4373177;32;20553;-40
2021/03/16 11:01:08;;;;;;;1.83;0.90;;;9.00;27.30;;;;;;4374191;32;20054;-39
2021/03/16 11:03:35;;;;;;;4.63;1.03;;;8.90;27.10;;;;;;4344463;32;20130;-38
2021/03/16 11:06:01;;;;;;;4.90;1.10;;;8.70;27.20;;;;;;4343981;32;20074;-40
2021/03/16 11:08:28;;;;;;;3.87;1.00;;;8.60;27.50;;;;;;4344600;32;20128;-39
2021/03/16 11:10:54;;;;;;;2.37;1.00;;;8.60;27.70;;;;;;4341384;33;20094;-38
2021/03/16 11:13:21;;;;;;;1.47;0.97;;;8.50;27.90;;;;;;4329067;33;20085;-42
2021/03/16 11:15:48;;;;;;;3.00;1.00;;;8.50;28.10;;;;;;4317402;33;20077;-40
2021/03/16 11:18:15;;;;;;;2.00;0.80;;;8.40;28.00;;;;;;4341830;33;20589;-39
2021/03/16 11:20:41;;;;;;;1.53;1.00;;;8.40;28.00;;;;;;4329817;33;20539;-41
2021/03/16 11:23:08;;;;;;;1.83;0.83;;;8.50;28.00;;;;;;4299710;33;20083;-39
2021/03/16 11:25:34;;;;;;;6.07;1.13;;;8.50;28.10;;;;;;4297242;33;20078;-39
2021/03/16 11:28:01;;;;;;;4.13;1.10;;;8.60;28.20;;;;;;4297574;33;20070;-39
2021/03/16 11:30:31;;;;;;;1.63;0.90;;;8.80;28.00;;;;;;4268925;33;20598;-40
2021/03/16 11:32:58;;;;;;;5.83;1.10;;;8.90;27.70;;;;;;4254940;33;20494;-40
2021/03/16 11:35:24;;;;;;;4.17;1.00;;;9.00;28.00;;;;;;4266899;33;20080;-40
2021/03/16 11:37:51;;;;;;;1.70;0.87;;;9.10;28.10;;;;;;4268768;33;20057;-40
2021/03/16 11:40:18;;;;;;;4.80;1.27;;;9.30;27.70;;;;;;4268880;33;20068;-39
2021/03/16 11:42:44;;;;;;;7.57;1.33;;;9.40;27.40;;;;;;4268926;33;20159;-39
2021/03/16 11:45:11;;;;;;;3.33;1.03;;;9.60;27.50;;;;;;4268249;33;20537;-40
2021/03/16 11:47:38;;;;;;;4.87;0.73;;;9.60;27.00;;;;;;4268609;33;20085;-41
2021/03/16 11:50:06;;;;;;;6.28;0.90;;;9.70;26.80;;;;;;4256793;33;20072;-39
2021/03/16 11:52:33;;;;;;;5.27;1.20;;;9.80;27.00;;;;;;4255050;33;20076;-39
2021/03/16 11:54:59;;;;;;;2.23;0.80;;;9.90;26.90;;;;;;4276723;33;20104;-39
2021/03/16 11:57:26;;;;;;;3.03;1.00;;;10.00;26.40;;;;;;4281513;33;20539;-40
2021/03/16 11:59:53;;;;;;;2.45;1.05;;;10.10;26.50;;;;;;4283501;33;20067;-41
2021/03/16 12:02:19;;;;;;;1.33;1.00;;;10.20;26.10;;;;;;4294896;33;20586;-40
2021/03/16 12:04:45;;;;;;;4.17;1.20;;;10.30;26.10;;;;;;4297229;33;20090;-40
2021/03/16 12:07:12;;;;;;;4.75;1.20;;;10.30;25.80;;;;;;4297157;33;20063;-39
2021/03/16 12:09:39;;;;;;;3.72;1.05;;;10.20;25.90;;;;;;4306361;33;20555;-40
2021/03/16 12:12:06;;;;;;;3.50;1.00;;;10.20;25.80;;;;;;4311538;33;20071;-40
2021/03/16 12:14:32;;;;;;;3.33;1.00;;;10.10;26.10;;;;;;4312225;33;20079;-40
2021/03/16 12:17:00;;;;;;;8.40;1.40;;;10.10;26.40;;;;;;4313512;33;20456;-40
2021/03/16 12:19:27;;;;;;;6.33;1.40;;;10.20;26.00;;;;;;4313964;33;20106;-38
2021/03/16 12:21:53;;;;;;;1.67;0.88;;;10.30;25.90;;;;;;4314219;33;20048;-40
2021/03/16 12:24:20;;;;;;;4.45;1.00;;;10.50;25.70;;;;;;4306332;33;20058;-41
2021/03/16 12:26:47;;;;;;;3.28;0.75;;;10.60;25.60;;;;;;4317947;33;20094;-40
2021/03/16 12:29:13;;;;;;;5.00;0.85;;;10.60;25.20;;;;;;4319499;33;20515;-39
2021/03/16 12:31:40;;;;;;;6.05;1.08;;;10.70;25.00;;;;;;4345069;32;20082;-40
2021/03/16 12:34:06;;;;;;;11.15;0.70;;;10.80;24.70;;;;;;4348516;32;20090;-40
2021/03/16 12:36:33;;;;;;;7.00;1.10;;;10.80;24.50;;;;;;4362469;32;20075;-40
2021/03/16 12:38:59;;;;;;;5.37;1.15;;;10.90;24.80;;;;;;4363529;32;20222;-39
2021/03/16 12:41:26;;;;;;;2.45;0.95;;;11.00;25.00;;;;;;4352195;32;20099;-40
2021/03/16 12:43:52;;;;;;;4.25;0.90;;;11.10;24.70;;;;;;4364656;32;20158;-41
2021/03/16 12:46:19;;;;;;;11.17;1.07;;;11.10;24.80;;;;;;4362681;32;20090;-40
2021/03/16 12:48:45;;;;;;;1.65;0.75;;;11.10;25.20;;;;;;4361162;32;20051;-40
2021/03/16 12:51:12;;;;;;;1.48;0.90;;;11.00;24.30;;;;;;4371698;32;20191;-39
2021/03/16 12:53:38;;;;;;;3.22;0.70;;;11.00;24.30;;;;;;4356567;32;20070;-41
2021/03/16 12:56:05;;;;;;;2.53;0.88;;;10.80;24.60;;;;;;4344951;32;20077;-41
2021/03/16 12:58:32;;;;;;;3.67;1.20;;;10.60;24.40;;;;;;4346269;32;20062;-39
2021/03/16 13:00:58;;;;;;;3.37;1.10;;;10.30;24.80;;;;;;4334011;32;20062;-39